Time;durP1;ratioP1;P1;durP2;ratioP2;P2;SDS_P1;SDS_P2;PMS_P1;PMS_P2;Temp;Humidity;BMP_temperature;BMP_pressure;BME280_temperature;BME280_humidity;BME280_pressure;Samples;Min_cycle;Max_cycle;Signal;HPM_P1;HPM_P2
2021/12/10 00:01:33;;;;;;;9.68;5.50;;;;;;;0.26;100.00;99561.06;5041098;28;20034;-88
2021/12/10 00:04:00;;;;;;;10.57;5.80;;;;;;;0.26;100.00;99562.81;4998901;28;20069;-87
2021/12/10 00:06:40;;;;;;;11.25;5.75;;;;;;;0.44;100.00;99564.78;5049253;28;20094;-86
2021/12/10 00:09:27;;;;;;;20.35;10.50;;;;;;;0.05;100.00;99572.31;5039532;28;20485;-88
2021/12/10 00:12:16;;;;;;;20.50;11.10;;;;;;;0.00;100.00;99578.69;5038076;28;20508;-86
2021/12/10 00:14:42;;;;;;;26.58;13.57;;;;;;;-0.03;100.00;99568.50;5038764;28;20044;-87
2021/12/10 00:17:11;;;;;;;31.27;16.80;;;;;;;-0.16;100.00;99557.38;5049801;28;20371;-86
2021/12/10 00:19:44;;;;;;;33.80;16.08;;;;;;;-0.03;100.00;99559.88;5046903;28;20102;-86
2021/12/10 00:22:14;;;;;;;31.67;15.95;;;;;;;-0.15;100.00;99553.00;5040719;28;20045;-87
2021/12/10 00:24:42;;;;;;;34.15;16.77;;;;;;;-0.04;100.00;99543.44;5037520;28;20029;-88
2021/12/10 00:27:09;;;;;;;36.60;18.60;;;;;;;-0.21;100.00;99535.25;5055204;28;20116;-85
2021/12/10 00:29:40;;;;;;;39.58;18.58;;;;;;;-0.06;100.00;99534.88;5068764;28;20044;-85
2021/12/10 00:32:17;;;;;;;35.60;17.95;;;;;;;-0.16;100.00;99533.13;5044087;28;20126;-88
2021/12/10 00:34:48;;;;;;;33.13;17.77;;;;;;;-0.07;100.00;99545.44;5039165;28;20040;-88
2021/12/10 00:37:17;;;;;;;34.20;16.40;;;;;;;-0.20;100.00;99552.53;5055399;28;20078;-88
2021/12/10 00:39:48;;;;;;;30.05;16.60;;;;;;;-0.26;100.00;99547.78;5055945;28;20029;-89
2021/12/10 00:42:17;;;;;;;31.30;17.08;;;;;;;-0.50;100.00;99534.91;5056560;28;20453;-83
2021/12/10 00:44:43;;;;;;;34.47;16.52;;;;;;;-0.63;100.00;99532.38;5056496;28;20116;-85
2021/12/10 00:47:09;;;;;;;30.10;15.43;;;;;;;-0.47;100.00;99533.81;5056393;28;20116;-83
2021/12/10 00:49:35;;;;;;;28.38;15.18;;;;;;;-0.54;100.00;99526.50;5056385;28;20025;-84
2021/12/10 00:52:07;;;;;;;27.17;14.55;;;;;;;-0.46;100.00;99527.69;5054952;28;20064;-84
2021/12/10 00:54:34;;;;;;;30.38;15.95;;;;;;;-0.51;100.00;99530.63;5056359;28;20037;-86
2021/12/10 00:57:01;;;;;;;32.25;16.25;;;;;;;-0.53;100.00;99535.94;5056149;28;20561;-83
2021/12/10 00:59:27;;;;;;;31.60;15.75;;;;;;;-0.44;100.00;99537.03;5055881;28;20051;-84
2021/12/10 01:01:54;;;;;;;30.52;16.02;;;;;;;-0.61;100.00;99530.50;5056234;28;20538;-83
2021/12/10 01:04:25;;;;;;;33.10;17.85;;;;;;;-0.50;100.00;99528.84;5056423;28;20029;-85
2021/12/10 01:06:52;;;;;;;31.63;18.85;;;;;;;-0.45;100.00;99544.94;5055974;28;20041;-84
2021/12/10 01:09:23;;;;;;;35.20;19.30;;;;;;;-0.67;100.00;99543.97;5056282;28;20374;-84
2021/12/10 01:12:03;;;;;;;32.63;18.80;;;;;;;-0.95;100.00;99544.34;5056018;28;20037;-86
2021/12/10 01:14:53;;;;;;;29.95;18.27;;;;;;;-1.20;100.00;99540.13;5056090;28;20036;-84
2021/12/10 01:25:52;;;;;;;32.53;19.52;;;;;;;-1.44;100.00;99536.72;5053516;28;20445;-87
2021/12/10 01:28:18;;;;;;;34.33;19.60;;;;;;;-1.70;100.00;99537.75;5037618;28;20417;-86
2021/12/10 01:30:44;;;;;;;31.15;19.55;;;;;;;-1.86;100.00;99539.78;5055437;28;20045;-86
2021/12/10 01:33:16;;;;;;;34.47;20.25;;;;;;;-1.86;100.00;99519.84;5055310;28;20029;-85
2021/12/10 01:35:49;;;;;;;31.27;18.92;;;;;;;-1.92;100.00;99525.44;5054479;28;20045;-85
2021/12/10 01:38:15;;;;;;;31.95;19.80;;;;;;;-1.92;100.00;99529.81;5035597;28;20506;-84
2021/12/10 01:40:47;;;;;;;32.75;20.25;;;;;;;-2.11;100.00;99533.69;5038611;28;20033;-86
2021/12/10 01:43:22;;;;;;;26.30;14.85;;;;;;;-2.15;100.00;99534.00;5044169;28;20064;-86
2021/12/10 01:45:54;;;;;;;34.67;20.92;;;;;;;-2.14;100.00;99526.13;5043450;28;20038;-86
2021/12/10 01:48:28;;;;;;;39.15;21.50;;;;;;;-2.31;100.00;99521.25;5042733;28;20036;-87
2021/12/10 01:50:55;;;;;;;38.95;22.08;;;;;;;-2.17;100.00;99517.72;5048987;28;20029;-86
2021/12/10 01:53:23;;;;;;;43.33;21.45;;;;;;;-2.05;100.00;99516.84;5048179;28;20383;-85
2021/12/10 01:55:52;;;;;;;40.28;22.23;;;;;;;-2.36;100.00;99519.94;5041223;28;20037;-85
2021/12/10 01:58:20;;;;;;;42.70;23.92;;;;;;;-2.51;100.00;99510.59;5042178;28;20032;-87
2021/12/10 02:00:52;;;;;;;42.65;23.48;;;;;;;-2.62;100.00;99504.34;5041419;28;20099;-88
2021/12/10 02:03:18;;;;;;;36.65;21.95;;;;;;;-2.68;100.00;99503.94;5044401;28;20025;-87
2021/12/10 02:05:44;;;;;;;42.10;23.33;;;;;;;-2.82;100.00;99507.50;5041634;28;20041;-87
2021/12/10 02:08:10;;;;;;;40.90;23.00;;;;;;;-2.85;100.00;99501.69;5045439;28;20037;-87
2021/12/10 02:10:36;;;;;;;38.85;21.83;;;;;;;-3.07;100.00;99497.09;5044587;28;20038;-87
2021/12/10 02:13:03;;;;;;;40.30;22.35;;;;;;;-3.20;100.00;99494.47;5042981;28;20078;-85
2021/12/10 02:15:29;;;;;;;43.95;22.25;;;;;;;-3.16;100.00;99497.69;5043718;28;20483;-85
2021/12/10 02:17:57;;;;;;;40.10;22.40;;;;;;;-2.96;100.00;99497.22;5043156;28;20060;-86
2021/12/10 02:20:27;;;;;;;36.38;20.23;;;;;;;-2.77;100.00;99489.84;5042056;28;20363;-84
2021/12/10 02:22:54;;;;;;;38.85;21.90;;;;;;;-2.90;100.00;99483.84;5043599;28;20033;-84
2021/12/10 02:25:23;;;;;;;36.67;21.63;;;;;;;-2.91;100.00;99482.16;5042101;28;20037;-88
2021/12/10 02:27:48;;;;;;;36.17;21.20;;;;;;;-2.96;100.00;99476.47;5040690;28;20057;-85
2021/12/10 02:30:20;;;;;;;36.30;20.95;;;;;;;-2.98;100.00;99464.56;5037115;28;20181;-87
2021/12/10 02:32:45;;;;;;;36.35;20.63;;;;;;;-3.03;100.00;99457.09;5033182;28;20132;-88
2021/12/10 02:35:13;;;;;;;37.70;21.52;;;;;;;-3.05;100.00;99468.50;5034406;28;20064;-88
2021/12/10 02:37:43;;;;;;;38.08;21.17;;;;;;;-2.89;100.00;99474.31;5033662;28;20037;-87
2021/12/10 02:40:12;;;;;;;36.92;19.92;;;;;;;-2.90;100.00;99473.47;5034374;28;20030;-88
2021/12/10 02:42:38;;;;;;;33.28;19.25;;;;;;;-2.73;100.00;99451.59;5034568;28;20027;-89
2021/12/10 02:45:07;;;;;;;36.78;20.55;;;;;;;-2.60;100.00;99455.00;5032990;28;20033;-88
2021/12/10 02:47:33;;;;;;;29.83;18.05;;;;;;;-2.54;100.00;99446.78;5032952;28;20483;-86
2021/12/10 02:49:59;;;;;;;30.67;18.30;;;;;;;-2.53;100.00;99439.84;5032958;28;20041;-88
2021/12/10 02:52:26;;;;;;;32.22;18.20;;;;;;;-2.65;100.00;99444.94;5016107;28;20103;-87
2021/12/10 02:54:52;;;;;;;33.33;18.75;;;;;;;-2.76;100.00;99434.47;5033824;28;20029;-87
2021/12/10 02:57:18;;;;;;;31.30;19.00;;;;;;;-2.66;100.00;99430.31;5034577;28;20037;-89
2021/12/10 02:59:44;;;;;;;33.83;19.02;;;;;;;-2.68;100.00;99432.19;5033397;28;20446;-86
2021/12/10 03:02:16;;;;;;;30.42;18.10;;;;;;;-2.52;100.00;99444.94;5034729;28;20037;-89
2021/12/10 03:04:43;;;;;;;32.97;18.60;;;;;;;-2.68;100.00;99426.16;5033188;28;20056;-90
2021/12/10 03:07:14;;;;;;;30.98;17.90;;;;;;;-2.47;100.00;99414.31;5036051;28;20091;-89
2021/12/10 03:09:44;;;;;;;33.30;18.48;;;;;;;-2.27;100.00;99415.50;5035308;28;20113;-87
2021/12/10 03:12:12;;;;;;;31.23;17.55;;;;;;;-2.52;100.00;99400.00;5034517;28;20044;-87
2021/12/10 03:14:41;;;;;;;29.83;17.52;;;;;;;-2.56;100.00;99388.19;5035362;28;20037;-86
2021/12/10 03:17:10;;;;;;;32.28;18.75;;;;;;;-2.39;100.00;99385.25;5033282;28;20112;-86
2021/12/10 03:19:38;;;;;;;30.00;16.85;;;;;;;-2.11;100.00;99395.28;5034262;28;20064;-84
2021/12/10 03:22:06;;;;;;;30.08;17.23;;;;;;;-1.92;100.00;99385.25;5047199;28;20089;-84
2021/12/10 03:24:33;;;;;;;28.73;17.45;;;;;;;-2.04;100.00;99395.69;5064572;28;20037;-84
2021/12/10 03:27:03;;;;;;;26.55;16.88;;;;;;;-2.36;100.00;99385.84;5035997;28;20044;-90
2021/12/10 03:29:35;;;;;;;29.20;17.45;;;;;;;-2.17;100.00;99377.56;5034630;28;20045;-87
2021/12/10 03:32:05;;;;;;;29.75;18.05;;;;;;;-2.30;100.00;99375.03;5033913;28;20045;-87
2021/12/10 03:34:31;;;;;;;30.38;17.65;;;;;;;-2.50;100.00;99372.19;5034401;28;20033;-85
2021/12/10 03:36:58;;;;;;;29.52;17.50;;;;;;;-2.29;100.00;99371.50;5034810;28;20038;-86
2021/12/10 03:39:25;;;;;;;27.25;16.30;;;;;;;-2.31;100.00;99367.34;5032639;28;20390;-88
2021/12/10 03:41:55;;;;;;;27.48;15.82;;;;;;;-2.42;100.00;99364.72;5033713;28;20042;-89
2021/12/10 03:44:20;;;;;;;32.22;17.73;;;;;;;-2.32;100.00;99355.34;5037796;28;20025;-86
2021/12/10 03:46:46;;;;;;;30.73;16.65;;;;;;;-2.28;100.00;99362.75;5032438;28;20044;-84
2021/12/10 03:49:14;;;;;;;26.83;15.98;;;;;;;-2.24;100.00;99340.84;5033265;28;20034;-86
2021/12/10 03:51:41;;;;;;;31.98;18.05;;;;;;;-2.33;100.00;99343.28;5034351;28;20489;-89
2021/12/10 03:54:07;;;;;;;29.42;17.27;;;;;;;-2.46;100.00;99348.53;5034293;28;20040;-84
2021/12/10 03:56:35;;;;;;;29.60;17.92;;;;;;;-2.32;100.00;99334.56;5034271;28;20036;-87
2021/12/10 03:59:07;;;;;;;24.77;16.65;;;;;;;-2.52;100.00;99332.56;5034435;28;20497;-85
2021/12/10 04:01:35;;;;;;;24.70;16.05;;;;;;;-2.45;100.00;99341.59;5034674;28;20126;-87
2021/12/10 04:04:03;;;;;;;23.92;15.73;;;;;;;-2.47;100.00;99346.03;5033819;28;20068;-88
2021/12/10 04:06:29;;;;;;;27.05;16.45;;;;;;;-2.62;100.00;99348.75;5032381;28;20044;-85
2021/12/10 04:08:58;;;;;;;26.33;16.88;;;;;;;-2.34;100.00;99344.22;5033552;28;20030;-86
2021/12/10 04:11:25;;;;;;;24.83;15.35;;;;;;;-2.40;100.00;99336.88;5033712;28;20509;-86
2021/12/10 04:13:53;;;;;;;21.23;14.18;;;;;;;-2.36;100.00;99336.56;5032134;28;20033;-86
2021/12/10 04:16:21;;;;;;;20.60;15.02;;;;;;;-2.29;100.00;99344.72;5033130;28;20037;-87
2021/12/10 04:18:49;;;;;;;22.50;14.55;;;;;;;-2.38;100.00;99340.19;5033099;28;20037;-86
2021/12/10 04:21:15;;;;;;;22.35;14.55;;;;;;;-2.64;100.00;99355.84;5032834;28;20026;-85
2021/12/10 04:23:41;;;;;;;23.10;14.13;;;;;;;-2.63;100.00;99362.69;5034225;28;20029;-89
2021/12/10 04:26:09;;;;;;;22.75;13.77;;;;;;;-2.74;100.00;99343.63;5015305;28;20064;-85
2021/12/10 04:28:35;;;;;;;22.67;15.02;;;;;;;-2.70;100.00;99348.50;5033062;28;20040;-87
2021/12/10 04:31:01;;;;;;;25.10;15.73;;;;;;;-2.73;100.00;99353.91;5032000;28;20038;-86
2021/12/10 04:33:27;;;;;;;24.73;15.40;;;;;;;-2.78;100.00;99357.72;5032814;28;20391;-85
2021/12/10 04:35:56;;;;;;;24.17;15.65;;;;;;;-2.65;100.00;99363.72;5033047;28;20025;-87
2021/12/10 04:38:26;;;;;;;24.25;14.07;;;;;;;-2.64;100.00;99360.19;5033203;28;20120;-85
2021/12/10 04:40:56;;;;;;;24.13;14.25;;;;;;;-2.58;100.00;99370.13;5034912;28;20034;-89
2021/12/10 04:43:23;;;;;;;24.08;15.40;;;;;;;-2.72;100.00;99375.47;5033726;28;20065;-88
2021/12/10 04:45:53;;;;;;;31.65;16.52;;;;;;;-2.77;100.00;99373.19;5033072;28;20037;-86
2021/12/10 04:48:19;;;;;;;30.40;17.80;;;;;;;-3.05;100.00;99376.03;5032967;28;20045;-87
2021/12/10 04:50:44;;;;;;;33.03;17.13;;;;;;;-3.30;100.00;99374.25;5034065;28;20026;-86
2021/12/10 04:53:10;;;;;;;31.73;17.90;;;;;;;-3.36;100.00;99399.75;5033780;28;20128;-87
2021/12/10 04:55:37;;;;;;;31.92;18.40;;;;;;;-3.33;100.00;99402.97;5033861;28;20037;-87
2021/12/10 04:58:04;;;;;;;32.97;17.35;;;;;;;-3.27;100.00;99391.34;5033627;28;20352;-87
2021/12/10 05:00:35;;;;;;;30.85;17.83;;;;;;;-3.13;100.00;99388.66;5035168;28;20113;-86
2021/12/10 05:03:02;;;;;;;33.63;18.27;;;;;;;-3.18;100.00;99391.56;5036257;28;20525;-88
2021/12/10 05:05:29;;;;;;;30.63;17.40;;;;;;;-2.72;100.00;99394.41;5035658;28;20376;-89
2021/12/10 05:07:55;;;;;;;31.00;17.63;;;;;;;-2.70;100.00;99407.28;5037010;28;20044;-86
2021/12/10 05:10:23;;;;;;;29.73;16.67;;;;;;;-2.89;100.00;99402.56;5037040;28;20430;-87
2021/12/10 05:12:49;;;;;;;29.80;17.33;;;;;;;-3.25;100.00;99405.03;5035895;28;20049;-87
2021/12/10 05:15:20;;;;;;;31.73;18.40;;;;;;;-3.28;100.00;99400.88;5037224;28;20441;-88
2021/12/10 05:17:48;;;;;;;27.23;16.85;;;;;;;-3.16;100.00;99396.66;5036602;28;20041;-87
2021/12/10 05:20:18;;;;;;;30.95;17.50;;;;;;;-3.06;100.00;99400.28;5037540;28;20033;-86
2021/12/10 05:22:47;;;;;;;32.42;17.98;;;;;;;-2.88;100.00;99411.97;5037042;28;20042;-87
2021/12/10 05:25:13;;;;;;;33.15;18.08;;;;;;;-3.15;100.00;99411.28;5037302;28;20080;-87
2021/12/10 05:27:40;;;;;;;28.10;16.75;;;;;;;-3.04;100.00;99410.53;5037007;28;20063;-87
2021/12/10 05:30:10;;;;;;;31.38;17.17;;;;;;;-3.33;100.00;99402.13;5036476;28;20467;-89
2021/12/10 05:32:35;;;;;;;28.13;16.70;;;;;;;-3.26;100.00;99404.22;5037529;28;20072;-86
2021/12/10 05:35:02;;;;;;;29.60;17.60;;;;;;;-3.18;100.00;99401.91;5037139;28;20045;-87
2021/12/10 05:37:28;;;;;;;27.58;17.08;;;;;;;-2.99;100.00;99403.28;5039019;28;20030;-86
2021/12/10 05:39:54;;;;;;;30.08;16.90;;;;;;;-2.98;100.00;99400.56;5039070;28;20072;-86
2021/12/10 05:42:19;;;;;;;29.52;17.25;;;;;;;-3.17;100.00;99398.41;5036353;28;20076;-85
2021/12/10 05:44:45;;;;;;;31.25;18.05;;;;;;;-3.21;100.00;99390.94;5036536;28;20029;-85
2021/12/10 05:47:11;;;;;;;28.67;16.90;;;;;;;-2.95;100.00;99379.63;5036309;28;20086;-87
2021/12/10 05:49:37;;;;;;;30.13;17.55;;;;;;;-3.10;100.00;99383.28;5036646;28;20071;-86
2021/12/10 05:52:06;;;;;;;26.40;15.77;;;;;;;-2.96;100.00;99385.75;5039926;28;20037;-87
2021/12/10 05:54:32;;;;;;;29.55;17.58;;;;;;;-3.16;100.00;99379.34;5038192;28;20049;-85
2021/12/10 05:56:59;;;;;;;27.55;16.70;;;;;;;-3.10;100.00;99372.91;5038472;28;20037;-85
2021/12/10 05:59:24;;;;;;;31.83;18.02;;;;;;;-3.13;100.00;99357.56;5039967;28;20029;-85
2021/12/10 06:01:51;;;;;;;31.23;16.70;;;;;;;-2.79;100.00;99354.31;5044197;28;20061;-86
2021/12/10 06:04:22;;;;;;;30.75;18.13;;;;;;;-2.82;100.00;99348.53;5042187;28;20493;-86
2021/12/10 06:06:48;;;;;;;37.22;18.70;;;;;;;-2.75;100.00;99353.16;5040387;28;20103;-86
2021/12/10 06:09:14;;;;;;;34.10;19.15;;;;;;;-2.97;100.00;99350.41;5040940;28;20040;-86
2021/12/10 06:11:39;;;;;;;34.13;18.15;;;;;;;-3.14;100.00;99340.34;5043393;28;20467;-85
2021/12/10 06:14:07;;;;;;;35.70;20.27;;;;;;;-3.58;100.00;99339.97;5040972;28;20445;-84
2021/12/10 06:16:34;;;;;;;39.17;20.00;;;;;;;-3.63;100.00;99329.06;5053655;28;20032;-86
2021/12/10 06:19:02;;;;;;;34.67;19.48;;;;;;;-3.54;100.00;99331.03;5106685;22;20025;-85
2021/12/10 06:21:35;;;;;;;33.08;19.08;;;;;;;-3.49;100.00;99324.63;5065650;28;20037;-89
2021/12/10 06:24:03;;;;;;;31.75;19.00;;;;;;;-3.37;100.00;99330.72;5057958;28;20040;-90
2021/12/10 06:26:29;;;;;;;31.35;17.65;;;;;;;-3.41;100.00;99319.75;5044535;28;20041;-90
2021/12/10 06:28:55;;;;;;;30.20;18.08;;;;;;;-3.24;100.00;99314.25;5042752;28;20132;-90
2021/12/10 06:31:23;;;;;;;31.58;18.40;;;;;;;-3.31;100.00;99304.41;5058374;28;20057;-90
2021/12/10 06:33:49;;;;;;;31.83;18.83;;;;;;;-3.08;100.00;99298.47;5059618;28;20082;-90
2021/12/10 06:36:19;;;;;;;33.25;18.30;;;;;;;-3.26;100.00;99307.53;5063297;28;20040;-90
2021/12/10 06:38:51;;;;;;;31.67;17.98;;;;;;;-3.54;100.00;99294.78;5062297;28;20051;-89
2021/12/10 06:41:17;;;;;;;30.48;18.45;;;;;;;-3.51;100.00;99284.25;5044244;28;20045;-91
2021/12/10 06:43:43;;;;;;;36.58;19.95;;;;;;;-3.62;100.00;99287.56;5062075;28;20041;-92
2021/12/10 06:46:11;;;;;;;33.20;19.15;;;;;;;-3.22;100.00;99270.13;5061993;28;20041;-89
2021/12/10 06:48:37;;;;;;;31.55;18.23;;;;;;;-3.23;100.00;99268.47;5040084;28;20106;-86
2021/12/10 06:51:18;;;;;;;32.72;18.73;;;;;;;-3.32;100.00;99284.66;5055137;28;20060;-87
2021/12/10 06:53:47;;;;;;;31.67;18.75;;;;;;;-3.38;100.00;99285.06;5055490;28;20044;-88
2021/12/10 06:56:17;;;;;;;32.03;18.98;;;;;;;-3.38;100.00;99279.88;5056767;28;20482;-89
2021/12/10 06:58:44;;;;;;;28.42;17.90;;;;;;;-3.52;100.00;99262.69;5057104;28;20025;-89
2021/12/10 07:01:32;;;;;;;28.35;17.80;;;;;;;-3.46;100.00;99267.44;5040042;28;20067;-88
2021/12/10 07:04:00;;;;;;;29.42;17.17;;;;;;;-3.51;100.00;99253.16;5057381;28;20082;-89
2021/12/10 07:06:27;;;;;;;28.92;16.88;;;;;;;-3.43;100.00;99245.69;5058196;28;20414;-86
2021/12/10 07:08:58;;;;;;;33.75;18.27;;;;;;;-3.41;100.00;99238.63;5058719;28;20107;-87
2021/12/10 07:11:25;;;;;;;30.02;18.52;;;;;;;-3.23;100.00;99242.56;5057190;28;20037;-89
2021/12/10 07:13:55;;;;;;;47.42;23.75;;;;;;;-3.05;100.00;99249.06;5056664;28;20566;-88
2021/12/10 07:16:23;;;;;;;33.50;19.73;;;;;;;-3.14;100.00;99236.72;5056296;28;20041;-87
2021/12/10 07:18:51;;;;;;;33.80;19.10;;;;;;;-3.09;100.00;99234.66;5047812;28;20439;-88
2021/12/10 07:21:16;;;;;;;60.55;21.95;;;;;;;-2.80;100.00;99235.16;5045982;28;20356;-89
2021/12/10 07:23:44;;;;;;;34.55;18.23;;;;;;;-2.78;100.00;99243.66;5047999;28;20039;-88
2021/12/10 07:26:11;;;;;;;39.17;19.30;;;;;;;-2.81;100.00;99242.09;5038729;28;20029;-89
2021/12/10 07:28:36;;;;;;;32.13;18.05;;;;;;;-2.69;100.00;99230.88;5038822;28;20462;-88
2021/12/10 07:31:06;;;;;;;36.20;20.17;;;;;;;-2.48;100.00;99232.81;5036159;28;20030;-87
2021/12/10 07:33:31;;;;;;;72.65;33.13;;;;;;;-2.30;100.00;99223.72;5036354;28;20400;-88
2021/12/10 07:35:57;;;;;;;56.33;26.25;;;;;;;-2.57;100.00;99218.78;5036748;28;20060;-89
2021/12/10 07:38:23;;;;;;;37.03;19.42;;;;;;;-2.61;100.00;99219.94;5045658;28;20037;-87
2021/12/10 07:40:50;;;;;;;34.40;18.23;;;;;;;-2.40;100.00;99222.75;5038460;28;20394;-88
2021/12/10 07:43:16;;;;;;;33.15;17.80;;;;;;;-2.28;100.00;99222.66;5035983;28;20032;-87
2021/12/10 07:45:46;;;;;;;34.00;18.90;;;;;;;-2.06;100.00;99221.91;5044684;28;20045;-89
2021/12/10 07:48:16;;;;;;;35.85;20.00;;;;;;;-2.22;100.00;99221.41;5045206;28;20045;-91
2021/12/10 07:50:58;;;;;;;45.03;20.90;;;;;;;-2.26;100.00;99230.34;5023020;28;20494;-89
2021/12/10 07:53:27;;;;;;;48.67;21.98;;;;;;;-2.03;100.00;99221.69;5042030;28;20041;-90
2021/12/10 07:55:57;;;;;;;35.88;20.10;;;;;;;-2.02;100.00;99227.69;5047882;28;20029;-88
2021/12/10 07:58:23;;;;;;;42.67;20.63;;;;;;;-1.82;100.00;99227.84;5046180;28;20667;-89
2021/12/10 08:00:49;;;;;;;43.13;21.30;;;;;;;-1.96;100.00;99228.06;5050554;28;20040;-89
2021/12/10 08:03:15;;;;;;;59.30;26.80;;;;;;;-2.04;100.00;99229.56;5044094;28;20025;-90
2021/12/10 08:06:01;;;;;;;60.33;29.15;;;;;;;-1.79;100.00;99227.59;5052530;28;20067;-92
2021/12/10 08:08:30;;;;;;;48.90;23.05;;;;;;;-2.14;100.00;99226.81;5050408;28;20033;-91
2021/12/10 08:11:00;;;;;;;41.15;20.23;;;;;;;-2.00;100.00;99231.81;5060838;28;20041;-92
2021/12/10 08:13:26;;;;;;;48.17;25.45;;;;;;;-1.95;100.00;99221.91;5034738;28;20044;-90
2021/12/10 08:15:54;;;;;;;38.65;19.67;;;;;;;-1.98;100.00;99218.72;5071045;28;20033;-90
2021/12/10 08:18:40;;;;;;;36.65;19.15;;;;;;;-1.93;100.00;99227.00;5069848;28;20056;-91
2021/12/10 08:21:17;;;;;;;33.33;18.38;;;;;;;-2.12;100.00;99237.91;5048088;28;20041;-90
2021/12/10 08:23:43;;;;;;;34.80;17.60;;;;;;;-2.04;100.00;99227.78;5050542;28;20532;-89
2021/12/10 08:26:09;;;;;;;33.33;18.40;;;;;;;-2.17;100.00;99224.47;5042789;28;20081;-91
2021/12/10 08:28:39;;;;;;;35.35;19.35;;;;;;;-2.17;100.00;99229.66;5041685;28;20116;-89
2021/12/10 08:31:05;;;;;;;34.67;19.48;;;;;;;-1.91;100.00;99231.13;5047730;28;20110;-88
2021/12/10 08:33:32;;;;;;;36.15;18.90;;;;;;;-1.77;100.00;99243.06;5051377;28;20037;-90
2021/12/10 08:36:22;;;;;;;31.88;17.67;;;;;;;-1.65;100.00;99237.78;5057936;28;20017;-86
2021/12/10 08:38:49;;;;;;;34.25;16.65;;;;;;;-1.73;100.00;99249.69;5056867;22;20054;-87
2021/12/10 08:41:20;;;;;;;28.75;15.65;;;;;;;-1.63;100.00;99246.28;5041443;28;20078;-90
2021/12/10 08:43:46;;;;;;;28.35;16.15;;;;;;;-1.76;100.00;99253.38;5040926;28;20029;-87
2021/12/10 08:46:13;;;;;;;28.15;16.52;;;;;;;-1.58;100.00;99232.94;5021882;28;20033;-87
2021/12/10 08:48:39;;;;;;;27.98;17.15;;;;;;;-1.61;100.00;99228.81;5040405;28;20051;-87
2021/12/10 08:51:12;;;;;;;26.15;16.30;;;;;;;-1.66;100.00;99236.09;5043010;28;20044;-86
2021/12/10 08:53:37;;;;;;;30.60;17.58;;;;;;;-1.48;100.00;99231.28;5038259;28;20029;-86
2021/12/10 08:56:08;;;;;;;31.27;16.55;;;;;;;-1.65;100.00;99227.38;5031665;28;20040;-88
2021/12/10 08:58:41;;;;;;;34.75;18.10;;;;;;;-1.72;100.00;99225.38;5040163;28;20046;-87
2021/12/10 09:01:08;;;;;;;26.53;13.73;;;;;;;-1.59;100.00;99218.28;5044327;28;20056;-85
2021/12/10 09:03:36;;;;;;;33.40;18.98;;;;;;;-1.70;100.00;99237.31;5043644;28;20128;-86
2021/12/10 09:06:05;;;;;;;30.90;17.48;;;;;;;-1.62;100.00;99221.94;5037855;28;20044;-83
2021/12/10 09:08:30;;;;;;;31.55;17.20;;;;;;;-1.58;100.00;99212.16;5041510;28;20045;-85
2021/12/10 09:14:00;;;;;;;34.85;19.05;;;;;;;-1.12;100.00;99209.41;5031822;28;20033;-84
2021/12/10 09:16:29;;;;;;;33.35;18.38;;;;;;;-1.27;100.00;99234.00;5063276;22;20044;-84
2021/12/10 09:18:58;;;;;;;40.00;20.35;;;;;;;-1.48;100.00;99222.66;5060410;28;20064;-86
2021/12/10 09:21:36;;;;;;;44.85;22.58;;;;;;;-1.35;100.00;99228.56;5076896;28;20041;-86
2021/12/10 09:24:06;;;;;;;39.85;21.52;;;;;;;-1.13;100.00;99212.97;5043829;22;20061;-84
2021/12/10 09:26:37;;;;;;;44.17;23.05;;;;;;;-1.34;100.00;99209.44;5018223;28;20053;-85
2021/12/10 09:29:12;;;;;;;49.95;25.15;;;;;;;-1.47;100.00;99214.75;5011734;28;20034;-85
2021/12/10 09:31:39;;;;;;;52.35;26.38;;;;;;;-1.47;100.00;99226.94;5012278;28;20030;-86
2021/12/10 09:34:06;;;;;;;51.13;25.83;;;;;;;-1.42;100.00;99227.38;5022148;28;20038;-87
2021/12/10 09:36:38;;;;;;;52.97;26.20;;;;;;;-1.43;100.00;99225.75;5020996;28;20084;-86
2021/12/10 09:39:07;;;;;;;52.75;26.52;;;;;;;-1.34;100.00;99225.03;5018266;28;20046;-85
2021/12/10 09:41:42;;;;;;;61.08;29.95;;;;;;;-1.09;100.00;99229.97;5007524;28;20045;-85
2021/12/10 09:44:28;;;;;;;56.15;28.17;;;;;;;-1.16;100.00;99223.63;5021290;28;20029;-84
2021/12/10 09:46:55;;;;;;;58.72;29.48;;;;;;;-1.38;100.00;99203.66;5029143;28;20030;-86
2021/12/10 09:49:24;;;;;;;47.53;25.67;;;;;;;-1.28;100.00;99185.56;5020754;28;20367;-86
2021/12/10 09:51:54;;;;;;;50.28;25.45;;;;;;;-1.19;100.00;99171.84;5018653;28;20049;-86
2021/12/10 09:54:22;;;;;;;45.95;24.13;;;;;;;-1.22;100.00;99187.69;5019814;28;20043;-85
2021/12/10 09:57:16;;;;;;;53.03;26.27;;;;;;;-1.35;100.00;99184.41;5014484;28;20094;-88
2021/12/10 09:59:45;;;;;;;56.92;28.17;;;;;;;-1.22;100.00;99185.09;5008667;28;20099;-86
2021/12/10 10:02:13;;;;;;;64.88;29.42;;;;;;;-1.35;100.00;99179.19;4987511;28;20046;-90
2021/12/10 10:04:52;;;;;;;61.65;31.52;;;;;;;-1.42;100.00;99171.06;5007254;28;20042;-87
2021/12/10 10:07:23;;;;;;;61.70;29.00;;;;;;;-1.22;100.00;99169.50;5021157;28;20053;-86
2021/12/10 10:09:52;;;;;;;60.28;30.73;;;;;;;-1.09;100.00;99164.97;5014314;28;20021;-88
2021/12/10 10:12:31;;;;;;;63.03;30.55;;;;;;;-1.26;100.00;99147.31;5015467;28;20041;-86
2021/12/10 10:15:07;;;;;;;60.00;30.73;;;;;;;-1.27;100.00;99148.25;5011569;28;20073;-89
2021/12/10 10:17:36;;;;;;;57.95;28.05;;;;;;;-1.10;100.00;99147.75;5007229;28;20037;-89
2021/12/10 10:20:03;;;;;;;56.95;30.15;;;;;;;-1.11;100.00;99144.31;5005406;28;20021;-88
2021/12/10 10:22:32;;;;;;;55.78;28.45;;;;;;;-1.14;100.00;99151.53;5008684;28;20041;-87
2021/12/10 10:24:58;;;;;;;56.10;28.23;;;;;;;-1.15;100.00;99140.31;5007578;28;20057;-89
2021/12/10 10:27:32;;;;;;;55.10;29.02;;;;;;;-0.85;100.00;99138.78;5007931;28;20438;-85
2021/12/10 10:30:24;;;;;;;53.75;26.80;;;;;;;-0.97;100.00;99135.41;5032970;28;20129;-89
2021/12/10 10:32:51;;;;;;;49.75;26.70;;;;;;;-0.94;100.00;99145.56;5012995;28;20046;-87
2021/12/10 10:35:22;;;;;;;49.65;26.80;;;;;;;-0.90;100.00;99135.75;5001631;28;20041;-87
2021/12/10 10:37:49;;;;;;;43.25;24.83;;;;;;;-0.94;100.00;99129.97;5023194;28;20037;-87
2021/12/10 10:40:21;;;;;;;52.50;27.30;;;;;;;-1.03;100.00;99127.28;5008459;28;20477;-86
2021/12/10 10:42:47;;;;;;;50.90;26.48;;;;;;;-1.09;100.00;99128.56;5002094;28;20038;-86
2021/12/10 10:45:23;;;;;;;49.45;27.92;;;;;;;-1.05;100.00;99130.00;5019221;28;20034;-87
2021/12/10 10:47:49;;;;;;;51.10;26.85;;;;;;;-1.11;100.00;99123.50;5014815;28;20068;-84
2021/12/10 10:50:26;;;;;;;53.42;25.75;;;;;;;-1.09;100.00;99120.78;5011118;28;20029;-88
2021/12/10 10:52:58;;;;;;;53.67;27.95;;;;;;;-1.16;100.00;99124.84;5007377;28;20042;-87
2021/12/10 10:55:29;;;;;;;54.33;27.88;;;;;;;-1.06;100.00;99117.94;5035326;28;20030;-87
2021/12/10 10:58:05;;;;;;;52.33;27.77;;;;;;;-0.90;100.00;99110.56;5006652;28;20120;-88
2021/12/10 11:00:59;;;;;;;55.83;27.85;;;;;;;-0.72;100.00;99109.06;5008760;28;20488;-88
2021/12/10 11:03:38;;;;;;;53.45;27.40;;;;;;;-0.79;100.00;99110.50;5005247;28;20283;-89
2021/12/10 11:06:26;;;;;;;53.33;27.70;;;;;;;-0.94;100.00;99105.72;5003666;28;20062;-87
2021/12/10 11:09:14;;;;;;;51.40;27.75;;;;;;;-0.85;100.00;99103.22;5011661;28;20047;-89
2021/12/10 11:12:01;;;;;;;49.92;26.95;;;;;;;-0.66;100.00;99092.94;5030647;28;20068;-87
2021/12/10 11:14:49;;;;;;;49.20;25.92;;;;;;;-0.54;100.00;99094.53;5006461;28;20454;-88
2021/12/10 11:17:30;;;;;;;46.22;26.08;;;;;;;-0.63;100.00;99082.28;5000400;28;20034;-87
2021/12/10 11:20:07;;;;;;;47.92;27.02;;;;;;;-0.64;100.00;99085.84;5010570;28;20042;-87
2021/12/10 11:22:34;;;;;;;47.50;26.35;;;;;;;-0.45;100.00;99081.72;5002946;28;20037;-88
2021/12/10 11:25:11;;;;;;;45.03;26.23;;;;;;;-0.44;100.00;99080.75;5004100;28;20042;-89
2021/12/10 11:27:45;;;;;;;46.53;26.23;;;;;;;-0.45;100.00;99076.50;5033101;28;20133;-89
2021/12/10 11:30:25;;;;;;;54.63;27.38;;;;;;;-0.44;100.00;99076.38;5001336;28;20046;-89
2021/12/10 11:32:54;;;;;;;48.40;27.05;;;;;;;-0.42;100.00;99063.22;5017437;28;20511;-89